Главная страница
METAR-TAF:

METAR-TAF

Аэропорты :

Эрста-Волда, Норвегия

широта: 62-11N, долгота: 006-04E, высота над уровнем моря: 7 м

Текущие метеонаблюдения

Эта сводка был подготовлена 3 часа и 3 минут назад, в 18:50 UTC
Ветер 6 Узел от южный-юго-западный
Температура 6°C
Влажность 61%
Давление 1008 hPa
Видимость 10 км и более
небольшая облачность на высоте 3300 фута
Отдельные облака на высоте 7200 фута
ливни в окрестностях

METAR: ENOV 071850Z 20006KT 9999 VCSH FEW033 SCT072 06/M01 Q1008 RMK WIND 2175FT 28010KT

Время: 23:53 (21:53 UTC)


TAF: отсутствует

Метеонаблюдения и прогнозы для более 4000 аэропортов (сводки METAR и TAF).

Имеющиеся станции представлены на карте желтыми и красными точками.

Чтобы увидеть название станции, наведите на нее мышь.

Затем щелкните, чтобы увидеть метеонаблюдения и метеопрогнозы.

Управление картой: чтобы увеличить масштаб, щелкните зеленые кнопки с черным крестиком; чтобы уменьшить масштаб, щелкните зеленую кнопку с тире; для просмотра соседних карт щелкайте зеленые стрелки.


METAR-TAF: